Aberdeen, SD

10:48 AM CST on February 21, 2017 (GMT -0600)
Roosevelt Crystals Subdivision | | Change Station
Active Advisory: Flood Warning Active Notice: Public Information Statement

Elev 1293 ft 45.45 °N, 98.46 °W | Updated 1 minute ago

Clear
Clear
46.1 °F
Feels Like 44 °F
N
4.0
Wind Variable Wind from SSW
Gusts 7.0 mph

Today
High -- | Low -- °F
--% Chance of Precip.
Yesterday
High -- | Low -- °F
Precip. -- in
Pressure 29.76 in
Visibility 10.0 miles
Clouds Clear
Windchill 44 °F
Dew Point 39 °F
Humidity 77%
Rainfall 0.00 in
Snow Depth Not available.
7:25 AM 6:09 PM
Waning Crescent, 24% visible
METAR KABR 211553Z AUTO 19007KT 10SM CLR 05/01 A2972 RMK AO2 SLP077 T00500006
Pressure 29.76 in
Visibility 10.0 miles
Clouds Clear
Windchill 44 °F
Dew Point 39 °F
Humidity 77%
Rainfall 0.00 in
Snow Depth Not available.
7:25 AM 6:09 PM
Waning Crescent, 24% visible
METAR KABR 211553Z AUTO 19007KT 10SM CLR 05/01 A2972 RMK AO2 SLP077 T00500006

Get Your Daily Forecast Email!

Thanks for signing up!

Be on the lookout for a verification email in your inbox.

You'll start receiving the daily forecast at 8 AM.

×

10-Day Weather Forecast

Almanac

Astronomy

Feb. 21, 2017 Rise Set
Actual Time
Civil Twilight
Nautical Twilight
Astronomical Twilight
Moon
Length of Visible Light
Length of Day
Tomorrow will be .
, % of the Moon is Illuminated

Today's Extremes

State Highs State Lows

Community

WunderPhotos

Upload Photos

1,962,540 photos uploaded!

WunderBlog® & News

Nearby

Air Quality

  Air Quality AQ Index Pollutant
Not available.

Snow Depth

Station Depth Elevation

Earthquake Activity

City Distance Mag. Time & Date
Minimum magnitude displayed is 2.5.

Coastal Water Temperatures

Place Temperature

Stations

Nearby Weather Stations

Station Location Temp. Windchill Dew Point Humidity Wind Precip. Elev Updated Type
                   

Watches & Warnings

Flood Warning
Issued: 10:30 AM CST Feb. 21, 2017 – National Weather Service

The Flood Warning continues for
the James River near Columbia
* until Friday early afternoon...
* at 9am Tuesday the stage was 13.8 feet...
* minor flooding is occurring and minor flooding is forecast...
* flood stage is 13.0 feet...
* forecast... the river rose above flood stage and will continue
rising to near 14.0 feet by midnight Wednesday. The river will
fall below flood stage Friday early afternoon.
* At 15.0 feet... significant amounts of agricultural lands are
flooded.




Lat... Lon 4594 9820 4563 9837 4552 9830 4552 9818
4563 9827 4594 9813